sensor_id;sensor_type;location;lat;lon;timestamp;pressure;altitude;pressure_sealevel;temperature;humidity
47670;BME280;33408;52.062;11.722;2023-04-21T00:00:48;101455.47;;;8.14;100.00
47670;BME280;33408;52.062;11.722;2023-04-21T00:03:16;101458.06;;;8.12;100.00
47670;BME280;33408;52.062;11.722;2023-04-21T00:05:45;101450.31;;;8.11;100.00
47670;BME280;33408;52.062;11.722;2023-04-21T00:08:12;101457.22;;;8.18;100.00
47670;BME280;33408;52.062;11.722;2023-04-21T00:10:39;101458.09;;;8.21;100.00
47670;BME280;33408;52.062;11.722;2023-04-21T00:13:07;101446.91;;;8.16;100.00
47670;BME280;33408;52.062;11.722;2023-04-21T00:15:34;101442.56;;;8.15;100.00
47670;BME280;33408;52.062;11.722;2023-04-21T00:18:00;101439.13;;;8.13;100.00
47670;BME280;33408;52.062;11.722;2023-04-21T00:20:28;101433.97;;;8.12;100.00
47670;BME280;33408;52.062;11.722;2023-04-21T00:22:55;101441.72;;;8.10;100.00
47670;BME280;33408;52.062;11.722;2023-04-21T00:25:22;101444.28;;;8.10;100.00
47670;BME280;33408;52.062;11.722;2023-04-21T00:27:49;101427.94;;;8.07;100.00
47670;BME280;33408;52.062;11.722;2023-04-21T00:30:17;101439.13;;;8.09;100.00
47670;BME280;33408;52.062;11.722;2023-04-21T00:32:44;101435.66;;;8.03;100.00
47670;BME280;33408;52.062;11.722;2023-04-21T00:35:10;101432.19;;;8.04;100.00
47670;BME280;33408;52.062;11.722;2023-04-21T00:37:37;101424.47;;;8.09;100.00
47670;BME280;33408;52.062;11.722;2023-04-21T00:40:08;101426.19;;;8.06;100.00
47670;BME280;33408;52.062;11.722;2023-04-21T00:42:35;101434.81;;;8.11;100.00
47670;BME280;33408;52.062;11.722;2023-04-21T00:45:02;101425.34;;;8.07;100.00
47670;BME280;33408;52.062;11.722;2023-04-21T00:47:30;101416.72;;;8.04;100.00
47670;BME280;33408;52.062;11.722;2023-04-21T00:49:57;101424.47;;;8.08;100.00
47670;BME280;33408;52.062;11.722;2023-04-21T00:52:24;101418.44;;;8.04;100.00
47670;BME280;33408;52.062;11.722;2023-04-21T00:54:51;101414.13;;;8.01;100.00
47670;BME280;33408;52.062;11.722;2023-04-21T00:57:19;101420.16;;;8.02;100.00
47670;BME280;33408;52.062;11.722;2023-04-21T00:59:46;101417.59;;;8.03;100.00
47670;BME280;33408;52.062;11.722;2023-04-21T01:02:14;101408.13;;;8.04;100.00
47670;BME280;33408;52.062;11.722;2023-04-21T01:04:42;101418.47;;;8.09;100.00
47670;BME280;33408;52.062;11.722;2023-04-21T01:07:10;101413.28;;;8.07;100.00
47670;BME280;33408;52.062;11.722;2023-04-21T01:09:36;101410.75;;;8.15;100.00
47670;BME280;33408;52.062;11.722;2023-04-21T01:12:05;101402.97;;;8.12;100.00
47670;BME280;33408;52.062;11.722;2023-04-21T01:14:32;101400.41;;;8.12;100.00
47670;BME280;33408;52.062;11.722;2023-04-21T01:16:59;101401.22;;;8.08;100.00
47670;BME280;33408;52.062;11.722;2023-04-21T01:19:28;101402.97;;;8.10;100.00
47670;BME280;33408;52.062;11.722;2023-04-21T01:21:57;101399.50;;;8.10;100.00
47670;BME280;33408;52.062;11.722;2023-04-21T01:24:34;101396.09;;;8.17;100.00
47670;BME280;33408;52.062;11.722;2023-04-21T01:27:01;101396.97;;;8.22;100.00
47670;BME280;33408;52.062;11.722;2023-04-21T01:29:31;101396.09;;;8.21;100.00
47670;BME280;33408;52.062;11.722;2023-04-21T01:32:02;101395.22;;;8.24;100.00
47670;BME280;33408;52.062;11.722;2023-04-21T01:34:28;101390.06;;;8.26;100.00
47670;BME280;33408;52.062;11.722;2023-04-21T01:36:56;101395.25;;;8.27;100.00
47670;BME280;33408;52.062;11.722;2023-04-21T01:39:25;101395.25;;;8.27;100.00
47670;BME280;33408;52.062;11.722;2023-04-21T01:41:53;101394.38;;;8.24;100.00
47670;BME280;33408;52.062;11.722;2023-04-21T01:44:22;101387.50;;;8.27;100.00
47670;BME280;33408;52.062;11.722;2023-04-21T01:46:49;101390.94;;;8.25;100.00
47670;BME280;33408;52.062;11.722;2023-04-21T01:49:16;101384.91;;;8.24;100.00
47670;BME280;33408;52.062;11.722;2023-04-21T01:51:42;101386.66;;;8.28;100.00
47670;BME280;33408;52.062;11.722;2023-04-21T01:54:10;101390.97;;;8.31;100.00
47670;BME280;33408;52.062;11.722;2023-04-21T01:56:37;101388.38;;;8.29;100.00
47670;BME280;33408;52.062;11.722;2023-04-21T01:59:04;101385.78;;;8.26;100.00
47670;BME280;33408;52.062;11.722;2023-04-21T02:01:30;101378.03;;;8.23;100.00
47670;BME280;33408;52.062;11.722;2023-04-21T02:03:57;101383.19;;;8.20;100.00
47670;BME280;33408;52.062;11.722;2023-04-21T02:06:23;101380.59;;;8.15;100.00
47670;BME280;33408;52.062;11.722;2023-04-21T02:08:50;101378.03;;;8.20;100.00
47670;BME280;33408;52.062;11.722;2023-04-21T02:11:18;101382.31;;;8.15;100.00
47670;BME280;33408;52.062;11.722;2023-04-21T02:13:44;101379.75;;;8.16;100.00
47670;BME280;33408;52.062;11.722;2023-04-21T02:16:11;101379.75;;;8.15;100.00
47670;BME280;33408;52.062;11.722;2023-04-21T02:18:38;101386.63;;;8.16;100.00
47670;BME280;33408;52.062;11.722;2023-04-21T02:21:05;101378.00;;;8.11;100.00
47670;BME280;33408;52.062;11.722;2023-04-21T02:23:33;101379.75;;;8.12;100.00
47670;BME280;33408;52.062;11.722;2023-04-21T02:26:01;101373.69;;;8.14;100.00
47670;BME280;33408;52.062;11.722;2023-04-21T02:28:29;101388.34;;;8.14;100.00
47670;BME280;33408;52.062;11.722;2023-04-21T02:30:56;101384.00;;;8.10;100.00
47670;BME280;33408;52.062;11.722;2023-04-21T02:33:22;101389.19;;;8.13;100.00
47670;BME280;33408;52.062;11.722;2023-04-21T02:35:49;101381.44;;;8.07;100.00
47670;BME280;33408;52.062;11.722;2023-04-21T02:38:15;101384.03;;;8.07;100.00
47670;BME280;33408;52.062;11.722;2023-04-21T02:40:42;101378.84;;;8.08;100.00
47670;BME280;33408;52.062;11.722;2023-04-21T02:43:08;101382.28;;;8.06;100.00
47670;BME280;33408;52.062;11.722;2023-04-21T02:45:38;101381.44;;;7.99;100.00
47670;BME280;33408;52.062;11.722;2023-04-21T02:48:05;101384.00;;;8.00;100.00
47670;BME280;33408;52.062;11.722;2023-04-21T02:50:31;101382.25;;;7.96;100.00
47670;BME280;33408;52.062;11.722;2023-04-21T02:52:58;101383.16;;;8.04;100.00
47670;BME280;33408;52.062;11.722;2023-04-21T02:55:25;101383.13;;;8.03;100.00
47670;BME280;33408;52.062;11.722;2023-04-21T02:57:51;101388.28;;;7.97;100.00
47670;BME280;33408;52.062;11.722;2023-04-21T03:00:18;101390.00;;;7.96;100.00
47670;BME280;33408;52.062;11.722;2023-04-21T03:02:46;101384.00;;;7.99;100.00
47670;BME280;33408;52.062;11.722;2023-04-21T03:05:13;101381.38;;;7.90;100.00
47670;BME280;33408;52.062;11.722;2023-04-21T03:07:39;101383.13;;;7.88;100.00
47670;BME280;33408;52.062;11.722;2023-04-21T03:10:06;101383.13;;;7.92;100.00
47670;BME280;33408;52.062;11.722;2023-04-21T03:12:33;101372.81;;;7.92;100.00
47670;BME280;33408;52.062;11.722;2023-04-21T03:15:00;101377.97;;;7.92;100.00
47670;BME280;33408;52.062;11.722;2023-04-21T03:17:26;101380.53;;;7.88;100.00
47670;BME280;33408;52.062;11.722;2023-04-21T03:19:54;101372.78;;;7.81;100.00
47670;BME280;33408;52.062;11.722;2023-04-21T03:22:21;101379.66;;;7.85;100.00
47670;BME280;33408;52.062;11.722;2023-04-21T03:24:47;101375.34;;;7.84;100.00
47670;BME280;33408;52.062;11.722;2023-04-21T03:27:14;101377.06;;;7.84;100.00
47670;BME280;33408;52.062;11.722;2023-04-21T03:29:40;101379.63;;;7.84;100.00
47670;BME280;33408;52.062;11.722;2023-04-21T03:32:07;101379.63;;;7.84;100.00
47670;BME280;33408;52.062;11.722;2023-04-21T03:34:33;101375.34;;;7.80;100.00
47670;BME280;33408;52.062;11.722;2023-04-21T03:37:01;101371.91;;;7.78;100.00
47670;BME280;33408;52.062;11.722;2023-04-21T03:39:28;101377.06;;;7.81;100.00
47670;BME280;33408;52.062;11.722;2023-04-21T03:41:55;101376.19;;;7.79;100.00
47670;BME280;33408;52.062;11.722;2023-04-21T03:44:24;101372.75;;;7.77;100.00
47670;BME280;33408;52.062;11.722;2023-04-21T03:46:51;101379.66;;;7.78;100.00
47670;BME280;33408;52.062;11.722;2023-04-21T03:49:17;101375.31;;;7.75;100.00
47670;BME280;33408;52.062;11.722;2023-04-21T03:51:44;101377.91;;;7.80;100.00
47670;BME280;33408;52.062;11.722;2023-04-21T03:54:12;101372.75;;;7.80;100.00
47670;BME280;33408;52.062;11.722;2023-04-21T03:56:39;101375.31;;;7.72;100.00
47670;BME280;33408;52.062;11.722;2023-04-21T03:59:05;101380.47;;;7.72;100.00
47670;BME280;33408;52.062;11.722;2023-04-21T04:01:32;101377.88;;;7.67;100.00
47670;BME280;33408;52.062;11.722;2023-04-21T04:03:59;101385.59;;;7.63;100.00
47670;BME280;33408;52.062;11.722;2023-04-21T04:06:26;101374.41;;;7.59;100.00
47670;BME280;33408;52.062;11.722;2023-04-21T04:08:53;101375.25;;;7.63;100.00
47670;BME280;33408;52.062;11.722;2023-04-21T04:11:21;101378.72;;;7.62;100.00
47670;BME280;33408;52.062;11.722;2023-04-21T04:13:47;101385.56;;;7.60;100.00
47670;BME280;33408;52.062;11.722;2023-04-21T04:16:14;101379.56;;;7.58;100.00
47670;BME280;33408;52.062;11.722;2023-04-21T04:18:40;101383.88;;;7.60;100.00
47670;BME280;33408;52.062;11.722;2023-04-21T04:21:07;101382.16;;;7.62;100.00
47670;BME280;33408;52.062;11.722;2023-04-21T04:23:34;101378.69;;;7.57;100.00
47670;BME280;33408;52.062;11.722;2023-04-21T04:26:00;101383.00;;;7.57;100.00
47670;BME280;33408;52.062;11.722;2023-04-21T04:28:30;101385.59;;;7.57;100.00
47670;BME280;33408;52.062;11.722;2023-04-21T04:30:56;101378.75;;;7.68;100.00
47670;BME280;33408;52.062;11.722;2023-04-21T04:33:24;101380.47;;;7.69;100.00
47670;BME280;33408;52.062;11.722;2023-04-21T04:35:51;101377.97;;;7.89;100.00
47670;BME280;33408;52.062;11.722;2023-04-21T04:38:18;101369.44;;;8.43;100.00
47670;BME280;33408;52.062;11.722;2023-04-21T04:40:52;101366.91;;;8.44;100.00
47670;BME280;33408;52.062;11.722;2023-04-21T04:43:19;101374.63;;;8.63;100.00
47670;BME280;33408;52.062;11.722;2023-04-21T04:45:46;101366.88;;;8.86;100.00
47670;BME280;33408;52.062;11.722;2023-04-21T04:48:13;101366.88;;;8.84;100.00
47670;BME280;33408;52.062;11.722;2023-04-21T04:50:42;101367.75;;;8.72;100.00
47670;BME280;33408;52.062;11.722;2023-04-21T04:53:10;101365.91;;;9.39;100.00
47670;BME280;33408;52.062;11.722;2023-04-21T04:55:36;101364.13;;;9.47;100.00
47670;BME280;33408;52.062;11.722;2023-04-21T04:58:03;101366.63;;;9.72;100.00
47670;BME280;33408;52.062;11.722;2023-04-21T05:00:29;101359.63;;;9.88;100.00
47670;BME280;33408;52.062;11.722;2023-04-21T05:02:58;101362.09;;;10.14;100.00
47670;BME280;33408;52.062;11.722;2023-04-21T05:05:24;101363.88;;;10.03;100.00
47670;BME280;33408;52.062;11.722;2023-04-21T05:07:51;101364.59;;;10.23;100.00
47670;BME280;33408;52.062;11.722;2023-04-21T05:10:18;101361.91;;;10.45;100.00
47670;BME280;33408;52.062;11.722;2023-04-21T05:12:44;101360.81;;;10.72;100.00
47670;BME280;33408;52.062;11.722;2023-04-21T05:15:11;101368.84;;;10.40;100.00
47670;BME280;33408;52.062;11.722;2023-04-21T05:17:37;101363.59;;;10.45;100.00
47670;BME280;33408;52.062;11.722;2023-04-21T05:20:07;101367.69;;;10.75;100.00
47670;BME280;33408;52.062;11.722;2023-04-21T05:22:36;101366.94;;;10.61;100.00
47670;BME280;33408;52.062;11.722;2023-04-21T05:25:03;101370.28;;;10.75;100.00
47670;BME280;33408;52.062;11.722;2023-04-21T05:27:30;101372.72;;;10.92;100.00
47670;BME280;33408;52.062;11.722;2023-04-21T05:29:56;101364.91;;;10.97;100.00
47670;BME280;33408;52.062;11.722;2023-04-21T05:32:23;101369.09;;;11.10;100.00
47670;BME280;33408;52.062;11.722;2023-04-21T05:34:49;101367.16;;;11.29;100.00
47670;BME280;33408;52.062;11.722;2023-04-21T05:37:17;101367.09;;;11.34;100.00
47670;BME280;33408;52.062;11.722;2023-04-21T05:39:44;101367.47;;;11.00;100.00
47670;BME280;33408;52.062;11.722;2023-04-21T05:42:11;101370.91;;;11.75;100.00
47670;BME280;33408;52.062;11.722;2023-04-21T05:44:38;101370.00;;;11.80;100.00
47670;BME280;33408;52.062;11.722;2023-04-21T05:47:05;101364.91;;;11.71;100.00
47670;BME280;33408;52.062;11.722;2023-04-21T05:49:32;101360.31;;;11.93;100.00
47670;BME280;33408;52.062;11.722;2023-04-21T05:51:58;101358.44;;;12.03;100.00
47670;BME280;33408;52.062;11.722;2023-04-21T05:54:26;101365.31;;;12.06;100.00
47670;BME280;33408;52.062;11.722;2023-04-21T05:56:53;101364.16;;;12.27;100.00
47670;BME280;33408;52.062;11.722;2023-04-21T05:59:19;101369.69;;;13.09;100.00
47670;BME280;33408;52.062;11.722;2023-04-21T06:01:46;101361.81;;;12.66;100.00
47670;BME280;33408;52.062;11.722;2023-04-21T06:04:12;101374.41;;;12.89;100.00
47670;BME280;33408;52.062;11.722;2023-04-21T06:06:39;101364.75;;;12.43;100.00
47670;BME280;33408;52.062;11.722;2023-04-21T06:09:06;101369.69;;;13.09;100.00
47670;BME280;33408;52.062;11.722;2023-04-21T06:11:34;101370.00;;;12.92;100.00
47670;BME280;33408;52.062;11.722;2023-04-21T06:14:00;101361.69;;;12.19;100.00
47670;BME280;33408;52.062;11.722;2023-04-21T06:16:27;101366.69;;;12.83;100.00
47670;BME280;33408;52.062;11.722;2023-04-21T06:18:56;101360.47;;;12.42;100.00
47670;BME280;33408;52.062;11.722;2023-04-21T06:21:23;101363.59;;;12.06;100.00
47670;BME280;33408;52.062;11.722;2023-04-21T06:23:50;101362.50;;;12.22;100.00
47670;BME280;33408;52.062;11.722;2023-04-21T06:26:16;101360.38;;;12.48;100.00
47670;BME280;33408;52.062;11.722;2023-04-21T06:28:44;101358.78;;;12.37;100.00
47670;BME280;33408;52.062;11.722;2023-04-21T06:31:11;101354.41;;;12.39;100.00
47670;BME280;33408;52.062;11.722;2023-04-21T06:33:40;101357.56;;;12.04;100.00
47670;BME280;33408;52.062;11.722;2023-04-21T06:36:07;101359.78;;;12.30;100.00
47670;BME280;33408;52.062;11.722;2023-04-21T06:38:33;101354.50;;;12.35;100.00
47670;BME280;33408;52.062;11.722;2023-04-21T06:41:00;101353.53;;;12.42;100.00
47670;BME280;33408;52.062;11.722;2023-04-21T06:43:28;101358.16;;;12.21;100.00
47670;BME280;33408;52.062;11.722;2023-04-21T06:45:56;101358.19;;;12.20;100.00
47670;BME280;33408;52.062;11.722;2023-04-21T06:48:23;101356.84;;;12.50;100.00
47670;BME280;33408;52.062;11.722;2023-04-21T06:50:50;101350.66;;;12.59;100.00
47670;BME280;33408;52.062;11.722;2023-04-21T06:53:17;101368.34;;;12.88;100.00
47670;BME280;33408;52.062;11.722;2023-04-21T06:55:45;101360.81;;;12.73;100.00
47670;BME280;33408;52.062;11.722;2023-04-21T06:58:12;101355.72;;;12.65;100.00
47670;BME280;33408;52.062;11.722;2023-04-21T07:00:40;101356.56;;;12.69;100.00
47670;BME280;33408;52.062;11.722;2023-04-21T07:03:08;101353.06;;;12.68;100.00
47670;BME280;33408;52.062;11.722;2023-04-21T07:05:34;101350.97;;;12.90;100.00
47670;BME280;33408;52.062;11.722;2023-04-21T07:08:01;101349.38;;;13.28;100.00
47670;BME280;33408;52.062;11.722;2023-04-21T07:10:28;101353.66;;;12.84;100.00
47670;BME280;33408;52.062;11.722;2023-04-21T07:12:54;101350.75;;;13.03;100.00
47670;BME280;33408;52.062;11.722;2023-04-21T07:15:21;101349.19;;;12.92;100.00
47670;BME280;33408;52.062;11.722;2023-04-21T07:17:48;101347.84;;;13.17;100.00
47670;BME280;33408;52.062;11.722;2023-04-21T07:20:16;101345.84;;;13.31;100.00
47670;BME280;33408;52.062;11.722;2023-04-21T07:22:43;101347.22;;;13.50;100.00
47670;BME280;33408;52.062;11.722;2023-04-21T07:25:10;101347.84;;;13.62;100.00
47670;BME280;33408;52.062;11.722;2023-04-21T07:27:37;101349.09;;;13.84;100.00
47670;BME280;33408;52.062;11.722;2023-04-21T07:30:05;101352.59;;;13.43;100.00
47670;BME280;33408;52.062;11.722;2023-04-21T07:32:32;101351.03;;;13.75;100.00
47670;BME280;33408;52.062;11.722;2023-04-21T07:34:59;101347.75;;;13.66;100.00
47670;BME280;33408;52.062;11.722;2023-04-21T07:37:28;101346.66;;;13.78;100.00
47670;BME280;33408;52.062;11.722;2023-04-21T07:39:55;101340.63;;;13.75;100.00
47670;BME280;33408;52.062;11.722;2023-04-21T07:42:21;101344.19;;;14.10;100.00
47670;BME280;33408;52.062;11.722;2023-04-21T07:44:48;101337.38;;;14.04;100.00
47670;BME280;33408;52.062;11.722;2023-04-21T07:47:15;101333.31;;;13.91;100.00
47670;BME280;33408;52.062;11.722;2023-04-21T07:49:41;101339.84;;;14.09;100.00
47670;BME280;33408;52.062;11.722;2023-04-21T07:52:08;101337.13;;;14.13;100.00
47670;BME280;33408;52.062;11.722;2023-04-21T07:54:36;101333.19;;;14.33;100.00
47670;BME280;33408;52.062;11.722;2023-04-21T07:57:02;101326.50;;;14.57;100.00
47670;BME280;33408;52.062;11.722;2023-04-21T07:59:29;101332.41;;;14.67;100.00
47670;BME280;33408;52.062;11.722;2023-04-21T08:01:56;101331.41;;;14.71;100.00
47670;BME280;33408;52.062;11.722;2023-04-21T08:04:22;101331.38;;;14.72;100.00
47670;BME280;33408;52.062;11.722;2023-04-21T08:06:49;101330.47;;;15.06;100.00
47670;BME280;33408;52.062;11.722;2023-04-21T08:09:16;101327.81;;;15.08;100.00
47670;BME280;33408;52.062;11.722;2023-04-21T08:11:44;101321.19;;;14.96;100.00
47670;BME280;33408;52.062;11.722;2023-04-21T08:14:11;101315.56;;;15.10;100.00
47670;BME280;33408;52.062;11.722;2023-04-21T08:16:38;101317.72;;;15.27;100.00
47670;BME280;33408;52.062;11.722;2023-04-21T08:19:06;101318.09;;;15.44;100.00
47670;BME280;33408;52.062;11.722;2023-04-21T08:21:33;101312.91;;;15.11;100.00
47670;BME280;33408;52.062;11.722;2023-04-21T08:24:00;101313.53;;;15.51;100.00
47670;BME280;33408;52.062;11.722;2023-04-21T08:26:26;101312.28;;;15.63;100.00
47670;BME280;33408;52.062;11.722;2023-04-21T08:28:55;101319.69;;;15.48;100.00
47670;BME280;33408;52.062;11.722;2023-04-21T08:31:22;101313.47;;;15.82;100.00
47670;BME280;33408;52.062;11.722;2023-04-21T08:33:49;101307.72;;;15.69;100.00
47670;BME280;33408;52.062;11.722;2023-04-21T08:36:15;101309.63;;;15.94;100.00
47670;BME280;33408;52.062;11.722;2023-04-21T08:38:43;101312.28;;;15.93;100.00
47670;BME280;33408;52.062;11.722;2023-04-21T08:41:09;101304.94;;;15.76;100.00
47670;BME280;33408;52.062;11.722;2023-04-21T08:43:36;101294.25;;;16.12;100.00
47670;BME280;33408;52.062;11.722;2023-04-21T08:46:06;101302.81;;;16.17;100.00
47670;BME280;33408;52.062;11.722;2023-04-21T08:48:34;101306.22;;;16.46;100.00
47670;BME280;33408;52.062;11.722;2023-04-21T08:51:02;101299.03;;;16.26;100.00
47670;BME280;33408;52.062;11.722;2023-04-21T08:53:28;101306.56;;;16.08;100.00
47670;BME280;33408;52.062;11.722;2023-04-21T08:55:55;101298.63;;;16.38;98.99
47670;BME280;33408;52.062;11.722;2023-04-21T08:58:22;101303.22;;;16.82;99.22
47670;BME280;33408;52.062;11.722;2023-04-21T09:00:48;101296.34;;;16.54;96.20
47670;BME280;33408;52.062;11.722;2023-04-21T09:03:22;101303.31;;;16.78;95.16
47670;BME280;33408;52.062;11.722;2023-04-21T09:05:56;101296.97;;;16.61;92.79
47670;BME280;33408;52.062;11.722;2023-04-21T09:08:23;101283.06;;;16.60;91.79
47670;BME280;33408;52.062;11.722;2023-04-21T09:10:51;101294.75;;;17.00;91.41
47670;BME280;33408;52.062;11.722;2023-04-21T09:13:18;101302.25;;;16.86;90.85
47670;BME280;33408;52.062;11.722;2023-04-21T09:15:49;101305.34;;;17.21;91.06
47670;BME280;33408;52.062;11.722;2023-04-21T09:18:17;101293.38;;;17.37;90.18
47670;BME280;33408;52.062;11.722;2023-04-21T09:20:47;101294.06;;;17.42;86.30
47670;BME280;33408;52.062;11.722;2023-04-21T09:23:17;101297.81;;;17.35;84.74
47670;BME280;33408;52.062;11.722;2023-04-21T09:25:45;101286.97;;;17.68;86.08
47670;BME280;33408;52.062;11.722;2023-04-21T09:28:13;101279.56;;;17.78;85.13
47670;BME280;33408;52.062;11.722;2023-04-21T09:30:41;101277.25;;;17.70;84.60
47670;BME280;33408;52.062;11.722;2023-04-21T09:33:14;101277.81;;;18.00;81.34
47670;BME280;33408;52.062;11.722;2023-04-21T09:35:41;101280.94;;;18.10;76.32
47670;BME280;33408;52.062;11.722;2023-04-21T09:38:11;101279.06;;;18.55;77.66
47670;BME280;33408;52.062;11.722;2023-04-21T09:40:38;101276.41;;;18.34;70.15
47670;BME280;33408;52.062;11.722;2023-04-21T09:43:05;101277.13;;;18.38;69.56
47670;BME280;33408;52.062;11.722;2023-04-21T09:45:32;101283.88;;;18.64;71.88
47670;BME280;33408;52.062;11.722;2023-04-21T09:48:00;101269.19;;;18.81;70.51
47670;BME280;33408;52.062;11.722;2023-04-21T09:50:28;101271.25;;;18.53;68.73
47670;BME280;33408;52.062;11.722;2023-04-21T09:52:56;101270.56;;;18.69;64.56
47670;BME280;33408;52.062;11.722;2023-04-21T09:55:26;101265.44;;;18.66;63.74
47670;BME280;33408;52.062;11.722;2023-04-21T09:57:57;101255.50;;;18.33;62.98
47670;BME280;33408;52.062;11.722;2023-04-21T10:00:25;101260.69;;;18.34;60.79
47670;BME280;33408;52.062;11.722;2023-04-21T10:02:53;101258.13;;;18.53;60.44
47670;BME280;33408;52.062;11.722;2023-04-21T10:05:23;101262.56;;;18.92;62.40
47670;BME280;33408;52.062;11.722;2023-04-21T10:07:50;101255.00;;;18.85;61.50
47670;BME280;33408;52.062;11.722;2023-04-21T10:10:21;101251.41;;;19.25;61.27
47670;BME280;33408;52.062;11.722;2023-04-21T10:12:50;101243.88;;;18.99;57.51
47670;BME280;33408;52.062;11.722;2023-04-21T10:15:30;101241.66;;;18.89;54.80
47670;BME280;33408;52.062;11.722;2023-04-21T10:18:16;101250.84;;;19.00;56.61
47670;BME280;33408;52.062;11.722;2023-04-21T10:20:50;101243.06;;;18.77;56.02
47670;BME280;33408;52.062;11.722;2023-04-21T10:23:32;101239.53;;;18.98;57.88
47670;BME280;33408;52.062;11.722;2023-04-21T10:26:03;101239.22;;;19.24;57.81
47670;BME280;33408;52.062;11.722;2023-04-21T10:28:56;101231.03;;;18.72;54.46
47670;BME280;33408;52.062;11.722;2023-04-21T10:31:28;101237.75;;;18.98;53.85
47670;BME280;33408;52.062;11.722;2023-04-21T10:34:14;101228.69;;;19.24;55.15
47670;BME280;33408;52.062;11.722;2023-04-21T10:36:48;101230.56;;;18.83;52.49
47670;BME280;33408;52.062;11.722;2023-04-21T10:39:26;101222.31;;;18.92;51.71
47670;BME280;33408;52.062;11.722;2023-04-21T10:42:16;101218.16;;;19.43;52.27
47670;BME280;33408;52.062;11.722;2023-04-21T10:44:50;101223.06;;;19.88;53.45
47670;BME280;33408;52.062;11.722;2023-04-21T10:47:24;101220.59;;;19.29;52.42
47670;BME280;33408;52.062;11.722;2023-04-21T10:49:51;101219.91;;;19.43;51.47
47670;BME280;33408;52.062;11.722;2023-04-21T10:52:18;101212.22;;;19.57;52.50
47670;BME280;33408;52.062;11.722;2023-04-21T10:55:04;101215.28;;;19.48;52.43
47670;BME280;33408;52.062;11.722;2023-04-21T10:57:33;101214.53;;;19.82;53.15
47670;BME280;33408;52.062;11.722;2023-04-21T11:00:01;101211.28;;;19.77;51.22
47670;BME280;33408;52.062;11.722;2023-04-21T11:02:31;101206.28;;;19.90;52.48
47670;BME280;33408;52.062;11.722;2023-04-21T11:05:00;101190.03;;;19.63;49.49
47670;BME280;33408;52.062;11.722;2023-04-21T11:07:27;101191.69;;;19.83;48.41
47670;BME280;33408;52.062;11.722;2023-04-21T11:09:57;101181.06;;;19.67;46.88
47670;BME280;33408;52.062;11.722;2023-04-21T11:12:26;101198.56;;;19.31;47.56
47670;BME280;33408;52.062;11.722;2023-04-21T11:14:54;101190.03;;;18.88;48.79
47670;BME280;33408;52.062;11.722;2023-04-21T11:17:23;101196.78;;;19.32;47.84
47670;BME280;33408;52.062;11.722;2023-04-21T11:19:51;101189.88;;;19.48;47.84
47670;BME280;33408;52.062;11.722;2023-04-21T11:22:19;101189.47;;;19.20;48.39
47670;BME280;33408;52.062;11.722;2023-04-21T11:24:46;101183.19;;;19.41;48.80
47670;BME280;33408;52.062;11.722;2023-04-21T11:27:13;101176.25;;;19.75;49.00
47670;BME280;33408;52.062;11.722;2023-04-21T11:29:40;101174.38;;;19.42;48.11
47670;BME280;33408;52.062;11.722;2023-04-21T11:32:07;101178.31;;;19.34;48.24
47670;BME280;33408;52.062;11.722;2023-04-21T11:34:37;101176.50;;;19.53;48.26
47670;BME280;33408;52.062;11.722;2023-04-21T11:37:05;101165.81;;;19.39;48.06
47670;BME280;33408;52.062;11.722;2023-04-21T11:39:32;101160.44;;;19.23;48.01
47670;BME280;33408;52.062;11.722;2023-04-21T11:41:58;101169.63;;;19.68;47.77
47670;BME280;33408;52.062;11.722;2023-04-21T11:44:31;101161.16;;;19.80;46.55
47670;BME280;33408;52.062;11.722;2023-04-21T11:46:58;101145.91;;;19.87;45.88
47670;BME280;33408;52.062;11.722;2023-04-21T11:49:25;101144.66;;;19.77;46.17
47670;BME280;33408;52.062;11.722;2023-04-21T11:51:55;101155.94;;;19.61;46.36
47670;BME280;33408;52.062;11.722;2023-04-21T11:54:22;101151.00;;;19.73;45.16
47670;BME280;33408;52.062;11.722;2023-04-21T11:56:49;101156.63;;;19.65;45.34
47670;BME280;33408;52.062;11.722;2023-04-21T11:59:17;101146.22;;;19.44;45.71
47670;BME280;33408;52.062;11.722;2023-04-21T12:01:48;101145.25;;;19.99;44.99
47670;BME280;33408;52.062;11.722;2023-04-21T12:04:16;101145.63;;;20.09;45.89
47670;BME280;33408;52.062;11.722;2023-04-21T12:06:43;101143.72;;;20.13;44.31
47670;BME280;33408;52.062;11.722;2023-04-21T12:09:17;101145.06;;;20.37;45.46
47670;BME280;33408;52.062;11.722;2023-04-21T12:11:46;101157.22;;;20.40;46.56
47670;BME280;33408;52.062;11.722;2023-04-21T12:14:14;101130.81;;;19.91;43.47
47670;BME280;33408;52.062;11.722;2023-04-21T12:16:41;101140.88;;;20.33;44.05
47670;BME280;33408;52.062;11.722;2023-04-21T12:19:08;101136.03;;;20.26;43.99
47670;BME280;33408;52.062;11.722;2023-04-21T12:21:36;101128.31;;;20.05;43.63
47670;BME280;33408;52.062;11.722;2023-04-21T12:24:03;101134.16;;;20.61;44.98
47670;BME280;33408;52.062;11.722;2023-04-21T12:26:31;101131.09;;;20.85;45.72
47670;BME280;33408;52.062;11.722;2023-04-21T12:28:58;101129.94;;;20.90;45.38
47670;BME280;33408;52.062;11.722;2023-04-21T12:31:26;101124.38;;;20.30;43.67
47670;BME280;33408;52.062;11.722;2023-04-21T12:33:52;101113.63;;;20.34;43.34
47670;BME280;33408;52.062;11.722;2023-04-21T12:36:19;101121.34;;;20.87;44.65
47670;BME280;33408;52.062;11.722;2023-04-21T12:38:45;101117.75;;;20.56;44.31
47670;BME280;33408;52.062;11.722;2023-04-21T12:41:12;101118.88;;;20.68;43.64